sensor_id;sensor_type;location;lat;lon;timestamp;P1;durP1;ratioP1;P2;durP2;ratioP2
20725;SDS011;10524;48.132;8.518;2023-02-22T00:01:30;13.90;;;8.90;;
20725;SDS011;10524;48.132;8.518;2023-02-22T00:04:00;12.98;;;7.80;;
20725;SDS011;10524;48.132;8.518;2023-02-22T00:06:31;11.65;;;7.18;;
20725;SDS011;10524;48.132;8.518;2023-02-22T00:08:57;13.02;;;7.82;;
20725;SDS011;10524;48.132;8.518;2023-02-22T00:11:23;16.20;;;9.35;;
20725;SDS011;10524;48.132;8.518;2023-02-22T00:13:50;12.38;;;8.45;;
20725;SDS011;10524;48.132;8.518;2023-02-22T00:16:17;12.80;;;9.52;;
20725;SDS011;10524;48.132;8.518;2023-02-22T00:18:46;14.18;;;9.35;;
20725;SDS011;10524;48.132;8.518;2023-02-22T00:21:12;17.48;;;8.80;;
20725;SDS011;10524;48.132;8.518;2023-02-22T00:23:41;13.35;;;8.95;;
20725;SDS011;10524;48.132;8.518;2023-02-22T00:26:12;14.05;;;9.15;;
20725;SDS011;10524;48.132;8.518;2023-02-22T00:28:42;13.45;;;8.38;;
20725;SDS011;10524;48.132;8.518;2023-02-22T00:31:09;13.98;;;9.25;;
20725;SDS011;10524;48.132;8.518;2023-02-22T00:33:36;15.80;;;9.73;;
20725;SDS011;10524;48.132;8.518;2023-02-22T00:36:03;16.05;;;9.30;;
20725;SDS011;10524;48.132;8.518;2023-02-22T00:38:29;14.43;;;8.75;;
20725;SDS011;10524;48.132;8.518;2023-02-22T00:40:54;14.98;;;9.15;;
20725;SDS011;10524;48.132;8.518;2023-02-22T00:43:20;13.00;;;8.80;;
20725;SDS011;10524;48.132;8.518;2023-02-22T00:45:46;13.93;;;9.10;;
20725;SDS011;10524;48.132;8.518;2023-02-22T00:48:13;12.65;;;8.60;;
20725;SDS011;10524;48.132;8.518;2023-02-22T00:50:39;13.45;;;8.95;;
20725;SDS011;10524;48.132;8.518;2023-02-22T00:53:04;15.23;;;9.45;;
20725;SDS011;10524;48.132;8.518;2023-02-22T00:55:33;13.43;;;8.30;;
20725;SDS011;10524;48.132;8.518;2023-02-22T00:58:00;11.88;;;8.20;;
20725;SDS011;10524;48.132;8.518;2023-02-22T01:00:30;12.18;;;8.30;;
20725;SDS011;10524;48.132;8.518;2023-02-22T01:02:59;12.75;;;8.73;;
20725;SDS011;10524;48.132;8.518;2023-02-22T01:05:25;13.25;;;8.50;;
20725;SDS011;10524;48.132;8.518;2023-02-22T01:07:52;11.60;;;7.25;;
20725;SDS011;10524;48.132;8.518;2023-02-22T01:10:22;16.92;;;9.43;;
20725;SDS011;10524;48.132;8.518;2023-02-22T01:12:49;16.88;;;9.27;;
20725;SDS011;10524;48.132;8.518;2023-02-22T01:15:17;14.98;;;8.90;;
20725;SDS011;10524;48.132;8.518;2023-02-22T01:17:47;15.07;;;9.20;;
20725;SDS011;10524;48.132;8.518;2023-02-22T01:20:17;14.95;;;9.52;;
20725;SDS011;10524;48.132;8.518;2023-02-22T01:22:45;14.20;;;9.18;;
20725;SDS011;10524;48.132;8.518;2023-02-22T01:25:17;13.32;;;8.70;;
20725;SDS011;10524;48.132;8.518;2023-02-22T01:27:45;17.20;;;9.65;;
20725;SDS011;10524;48.132;8.518;2023-02-22T01:30:11;13.32;;;8.95;;
20725;SDS011;10524;48.132;8.518;2023-02-22T01:32:38;13.38;;;8.50;;
20725;SDS011;10524;48.132;8.518;2023-02-22T01:35:06;15.60;;;8.85;;
20725;SDS011;10524;48.132;8.518;2023-02-22T01:37:34;14.10;;;8.68;;
20725;SDS011;10524;48.132;8.518;2023-02-22T01:40:00;11.20;;;7.43;;
20725;SDS011;10524;48.132;8.518;2023-02-22T01:42:28;11.05;;;6.60;;
20725;SDS011;10524;48.132;8.518;2023-02-22T01:45:36;9.65;;;6.65;;
20725;SDS011;10524;48.132;8.518;2023-02-22T01:48:08;10.32;;;7.18;;
20725;SDS011;10524;48.132;8.518;2023-02-22T01:51:13;13.43;;;7.95;;
20725;SDS011;10524;48.132;8.518;2023-02-22T01:54:14;12.10;;;7.72;;
20725;SDS011;10524;48.132;8.518;2023-02-22T01:56:48;12.25;;;7.80;;
20725;SDS011;10524;48.132;8.518;2023-02-22T01:59:18;12.50;;;7.65;;
20725;SDS011;10524;48.132;8.518;2023-02-22T02:01:46;13.73;;;8.73;;
20725;SDS011;10524;48.132;8.518;2023-02-22T02:04:14;12.10;;;7.78;;
20725;SDS011;10524;48.132;8.518;2023-02-22T02:06:44;12.13;;;8.05;;
20725;SDS011;10524;48.132;8.518;2023-02-22T02:09:25;9.77;;;6.78;;
20725;SDS011;10524;48.132;8.518;2023-02-22T02:12:00;10.02;;;7.00;;
20725;SDS011;10524;48.132;8.518;2023-02-22T02:14:29;13.70;;;7.35;;
20725;SDS011;10524;48.132;8.518;2023-02-22T02:16:58;12.80;;;6.65;;
20725;SDS011;10524;48.132;8.518;2023-02-22T02:19:38;10.25;;;6.15;;
20725;SDS011;10524;48.132;8.518;2023-02-22T02:27:40;8.88;;;5.90;;
20725;SDS011;10524;48.132;8.518;2023-02-22T02:36:07;12.70;;;6.90;;
20725;SDS011;10524;48.132;8.518;2023-02-22T02:39:36;9.98;;;7.13;;
20725;SDS011;10524;48.132;8.518;2023-02-22T02:41:50;9.88;;;6.72;;
20725;SDS011;10524;48.132;8.518;2023-02-22T02:44:18;8.82;;;6.30;;
20725;SDS011;10524;48.132;8.518;2023-02-22T02:49:18;10.10;;;6.32;;
20725;SDS011;10524;48.132;8.518;2023-02-22T02:52:08;9.32;;;6.28;;
20725;SDS011;10524;48.132;8.518;2023-02-22T02:54:38;10.05;;;6.60;;
20725;SDS011;10524;48.132;8.518;2023-02-22T02:57:05;9.02;;;6.45;;
20725;SDS011;10524;48.132;8.518;2023-02-22T02:59:35;9.20;;;6.32;;
20725;SDS011;10524;48.132;8.518;2023-02-22T03:08:19;9.70;;;6.55;;
20725;SDS011;10524;48.132;8.518;2023-02-22T03:19:10;10.50;;;6.65;;
20725;SDS011;10524;48.132;8.518;2023-02-22T03:22:01;9.85;;;6.60;;
20725;SDS011;10524;48.132;8.518;2023-02-22T03:24:44;7.97;;;5.95;;
20725;SDS011;10524;48.132;8.518;2023-02-22T03:32:56;9.80;;;6.43;;
20725;SDS011;10524;48.132;8.518;2023-02-22T03:35:27;10.85;;;6.15;;
20725;SDS011;10524;48.132;8.518;2023-02-22T03:37:57;9.85;;;6.63;;
20725;SDS011;10524;48.132;8.518;2023-02-22T03:40:32;8.75;;;6.05;;
20725;SDS011;10524;48.132;8.518;2023-02-22T03:43:06;9.55;;;6.30;;
20725;SDS011;10524;48.132;8.518;2023-02-22T03:45:34;9.27;;;6.20;;
20725;SDS011;10524;48.132;8.518;2023-02-22T03:48:06;9.65;;;6.25;;
20725;SDS011;10524;48.132;8.518;2023-02-22T03:50:38;10.13;;;6.20;;
20725;SDS011;10524;48.132;8.518;2023-02-22T03:53:04;10.98;;;6.40;;
20725;SDS011;10524;48.132;8.518;2023-02-22T03:55:31;9.40;;;6.28;;
20725;SDS011;10524;48.132;8.518;2023-02-22T03:57:58;11.25;;;6.47;;
20725;SDS011;10524;48.132;8.518;2023-02-22T04:00:29;8.85;;;6.03;;
20725;SDS011;10524;48.132;8.518;2023-02-22T04:02:57;11.45;;;6.20;;
20725;SDS011;10524;48.132;8.518;2023-02-22T04:05:25;10.48;;;5.93;;
20725;SDS011;10524;48.132;8.518;2023-02-22T04:07:51;9.88;;;6.35;;
20725;SDS011;10524;48.132;8.518;2023-02-22T04:10:18;10.38;;;6.10;;
20725;SDS011;10524;48.132;8.518;2023-02-22T04:12:44;11.00;;;6.00;;
20725;SDS011;10524;48.132;8.518;2023-02-22T04:15:13;8.95;;;5.78;;
20725;SDS011;10524;48.132;8.518;2023-02-22T04:17:42;9.93;;;5.95;;
20725;SDS011;10524;48.132;8.518;2023-02-22T04:20:08;9.93;;;6.05;;
20725;SDS011;10524;48.132;8.518;2023-02-22T04:22:35;9.63;;;5.80;;
20725;SDS011;10524;48.132;8.518;2023-02-22T04:25:01;10.40;;;5.78;;
20725;SDS011;10524;48.132;8.518;2023-02-22T04:27:26;12.65;;;6.55;;
20725;SDS011;10524;48.132;8.518;2023-02-22T04:29:52;9.32;;;6.03;;
20725;SDS011;10524;48.132;8.518;2023-02-22T04:32:18;9.90;;;5.47;;
20725;SDS011;10524;48.132;8.518;2023-02-22T04:34:43;7.85;;;5.47;;
20725;SDS011;10524;48.132;8.518;2023-02-22T04:37:09;8.32;;;5.95;;
20725;SDS011;10524;48.132;8.518;2023-02-22T04:39:35;7.78;;;5.70;;
20725;SDS011;10524;48.132;8.518;2023-02-22T04:42:00;8.13;;;5.60;;
20725;SDS011;10524;48.132;8.518;2023-02-22T04:44:26;10.95;;;5.90;;
20725;SDS011;10524;48.132;8.518;2023-02-22T04:46:51;13.95;;;6.65;;
20725;SDS011;10524;48.132;8.518;2023-02-22T04:49:17;10.52;;;6.35;;
20725;SDS011;10524;48.132;8.518;2023-02-22T04:51:43;9.93;;;6.15;;
20725;SDS011;10524;48.132;8.518;2023-02-22T04:54:09;10.75;;;6.95;;
20725;SDS011;10524;48.132;8.518;2023-02-22T04:56:34;10.15;;;6.53;;
20725;SDS011;10524;48.132;8.518;2023-02-22T04:59:00;9.25;;;6.57;;
20725;SDS011;10524;48.132;8.518;2023-02-22T05:01:29;9.60;;;6.38;;
20725;SDS011;10524;48.132;8.518;2023-02-22T05:03:57;10.13;;;6.45;;
20725;SDS011;10524;48.132;8.518;2023-02-22T05:06:23;12.25;;;6.78;;
20725;SDS011;10524;48.132;8.518;2023-02-22T05:08:49;10.32;;;6.20;;
20725;SDS011;10524;48.132;8.518;2023-02-22T05:11:15;9.48;;;6.30;;
20725;SDS011;10524;48.132;8.518;2023-02-22T05:13:40;11.05;;;6.60;;
20725;SDS011;10524;48.132;8.518;2023-02-22T05:16:06;8.93;;;6.13;;
20725;SDS011;10524;48.132;8.518;2023-02-22T05:18:32;9.40;;;6.20;;
20725;SDS011;10524;48.132;8.518;2023-02-22T05:20:57;9.65;;;5.97;;
20725;SDS011;10524;48.132;8.518;2023-02-22T05:23:23;9.85;;;6.05;;
20725;SDS011;10524;48.132;8.518;2023-02-22T05:25:48;8.95;;;5.45;;
20725;SDS011;10524;48.132;8.518;2023-02-22T05:28:14;9.65;;;5.30;;
20725;SDS011;10524;48.132;8.518;2023-02-22T05:30:40;10.38;;;6.05;;
20725;SDS011;10524;48.132;8.518;2023-02-22T05:33:07;10.52;;;5.55;;
20725;SDS011;10524;48.132;8.518;2023-02-22T05:35:33;10.38;;;6.65;;
20725;SDS011;10524;48.132;8.518;2023-02-22T05:38:01;8.48;;;5.68;;
20725;SDS011;10524;48.132;8.518;2023-02-22T05:40:27;10.95;;;5.90;;
20725;SDS011;10524;48.132;8.518;2023-02-22T05:42:54;10.40;;;6.53;;
20725;SDS011;10524;48.132;8.518;2023-02-22T05:45:22;12.30;;;6.60;;
20725;SDS011;10524;48.132;8.518;2023-02-22T05:47:49;12.98;;;6.50;;
20725;SDS011;10524;48.132;8.518;2023-02-22T05:50:16;11.18;;;6.38;;
20725;SDS011;10524;48.132;8.518;2023-02-22T05:52:42;10.52;;;6.32;;
20725;SDS011;10524;48.132;8.518;2023-02-22T05:55:09;9.20;;;6.28;;
20725;SDS011;10524;48.132;8.518;2023-02-22T05:57:35;9.77;;;6.15;;
20725;SDS011;10524;48.132;8.518;2023-02-22T06:00:01;12.23;;;6.20;;
20725;SDS011;10524;48.132;8.518;2023-02-22T06:02:29;14.07;;;6.43;;
20725;SDS011;10524;48.132;8.518;2023-02-22T06:04:54;9.95;;;6.20;;
20725;SDS011;10524;48.132;8.518;2023-02-22T06:07:20;9.60;;;6.00;;
20725;SDS011;10524;48.132;8.518;2023-02-22T06:09:46;11.57;;;6.07;;
20725;SDS011;10524;48.132;8.518;2023-02-22T06:12:12;9.98;;;6.13;;
20725;SDS011;10524;48.132;8.518;2023-02-22T06:14:38;9.02;;;6.20;;
20725;SDS011;10524;48.132;8.518;2023-02-22T06:17:05;13.88;;;6.60;;
20725;SDS011;10524;48.132;8.518;2023-02-22T06:19:30;10.95;;;6.55;;
20725;SDS011;10524;48.132;8.518;2023-02-22T06:21:56;14.05;;;7.00;;
20725;SDS011;10524;48.132;8.518;2023-02-22T06:24:24;9.60;;;6.93;;
20725;SDS011;10524;48.132;8.518;2023-02-22T06:26:54;11.00;;;6.78;;
20725;SDS011;10524;48.132;8.518;2023-02-22T06:29:21;11.82;;;8.00;;
20725;SDS011;10524;48.132;8.518;2023-02-22T06:31:47;13.90;;;8.90;;
20725;SDS011;10524;48.132;8.518;2023-02-22T06:34:13;16.48;;;9.57;;
20725;SDS011;10524;48.132;8.518;2023-02-22T06:36:39;14.48;;;9.40;;
20725;SDS011;10524;48.132;8.518;2023-02-22T06:39:06;15.77;;;9.68;;
20725;SDS011;10524;48.132;8.518;2023-02-22T06:41:37;12.13;;;7.80;;
20725;SDS011;10524;48.132;8.518;2023-02-22T06:44:04;14.43;;;8.98;;
20725;SDS011;10524;48.132;8.518;2023-02-22T06:46:30;14.55;;;10.27;;
20725;SDS011;10524;48.132;8.518;2023-02-22T06:48:56;13.25;;;7.75;;
20725;SDS011;10524;48.132;8.518;2023-02-22T06:51:23;17.20;;;10.18;;
20725;SDS011;10524;48.132;8.518;2023-02-22T06:53:50;15.32;;;9.85;;
20725;SDS011;10524;48.132;8.518;2023-02-22T06:56:15;14.52;;;9.05;;
20725;SDS011;10524;48.132;8.518;2023-02-22T06:58:41;16.58;;;9.25;;
20725;SDS011;10524;48.132;8.518;2023-02-22T07:01:07;11.65;;;7.40;;
20725;SDS011;10524;48.132;8.518;2023-02-22T07:03:33;12.30;;;7.53;;
20725;SDS011;10524;48.132;8.518;2023-02-22T07:05:59;11.80;;;6.63;;
20725;SDS011;10524;48.132;8.518;2023-02-22T07:08:26;12.98;;;6.93;;
20725;SDS011;10524;48.132;8.518;2023-02-22T07:10:52;12.73;;;6.72;;
20725;SDS011;10524;48.132;8.518;2023-02-22T07:13:18;13.18;;;6.95;;
20725;SDS011;10524;48.132;8.518;2023-02-22T07:15:44;10.38;;;6.32;;
20725;SDS011;10524;48.132;8.518;2023-02-22T07:18:09;10.43;;;7.03;;
20725;SDS011;10524;48.132;8.518;2023-02-22T07:20:36;12.07;;;7.28;;
20725;SDS011;10524;48.132;8.518;2023-02-22T07:23:02;10.77;;;6.25;;
20725;SDS011;10524;48.132;8.518;2023-02-22T07:25:29;9.30;;;6.47;;
20725;SDS011;10524;48.132;8.518;2023-02-22T07:27:55;13.02;;;7.60;;
20725;SDS011;10524;48.132;8.518;2023-02-22T07:30:28;12.35;;;8.50;;
20725;SDS011;10524;48.132;8.518;2023-02-22T07:32:56;13.77;;;9.40;;
20725;SDS011;10524;48.132;8.518;2023-02-22T07:35:25;12.10;;;8.48;;
20725;SDS011;10524;48.132;8.518;2023-02-22T07:37:52;9.98;;;5.70;;
20725;SDS011;10524;48.132;8.518;2023-02-22T07:40:19;8.35;;;5.05;;
20725;SDS011;10524;48.132;8.518;2023-02-22T07:42:52;8.18;;;5.55;;
20725;SDS011;10524;48.132;8.518;2023-02-22T07:45:20;9.18;;;6.47;;
20725;SDS011;10524;48.132;8.518;2023-02-22T07:47:46;9.90;;;6.22;;
20725;SDS011;10524;48.132;8.518;2023-02-22T07:50:15;6.93;;;5.38;;
20725;SDS011;10524;48.132;8.518;2023-02-22T07:52:46;7.32;;;5.22;;
20725;SDS011;10524;48.132;8.518;2023-02-22T07:55:13;7.00;;;5.35;;
20725;SDS011;10524;48.132;8.518;2023-02-22T07:57:41;7.38;;;5.00;;
20725;SDS011;10524;48.132;8.518;2023-02-22T08:00:10;7.82;;;5.28;;
20725;SDS011;10524;48.132;8.518;2023-02-22T08:02:38;6.80;;;5.28;;
20725;SDS011;10524;48.132;8.518;2023-02-22T08:05:05;8.52;;;5.30;;
20725;SDS011;10524;48.132;8.518;2023-02-22T08:07:31;18.63;;;11.07;;
20725;SDS011;10524;48.132;8.518;2023-02-22T08:09:57;36.67;;;21.30;;
20725;SDS011;10524;48.132;8.518;2023-02-22T08:12:22;15.23;;;8.93;;
20725;SDS011;10524;48.132;8.518;2023-02-22T08:14:48;7.90;;;5.80;;
20725;SDS011;10524;48.132;8.518;2023-02-22T08:17:14;8.60;;;6.20;;
20725;SDS011;10524;48.132;8.518;2023-02-22T08:19:39;9.98;;;6.30;;
20725;SDS011;10524;48.132;8.518;2023-02-22T08:22:05;9.52;;;6.18;;
20725;SDS011;10524;48.132;8.518;2023-02-22T08:24:30;8.35;;;5.70;;
20725;SDS011;10524;48.132;8.518;2023-02-22T08:26:56;8.23;;;6.07;;
20725;SDS011;10524;48.132;8.518;2023-02-22T08:29:22;10.88;;;7.80;;
20725;SDS011;10524;48.132;8.518;2023-02-22T08:31:51;14.07;;;9.18;;
20725;SDS011;10524;48.132;8.518;2023-02-22T08:34:18;14.55;;;10.60;;
20725;SDS011;10524;48.132;8.518;2023-02-22T08:36:44;12.70;;;9.40;;
20725;SDS011;10524;48.132;8.518;2023-02-22T08:39:10;10.23;;;7.68;;
20725;SDS011;10524;48.132;8.518;2023-02-22T08:41:35;9.70;;;7.40;;
20725;SDS011;10524;48.132;8.518;2023-02-22T08:44:01;11.90;;;7.45;;
20725;SDS011;10524;48.132;8.518;2023-02-22T08:46:27;13.00;;;8.52;;
20725;SDS011;10524;48.132;8.518;2023-02-22T08:48:53;10.95;;;8.00;;
20725;SDS011;10524;48.132;8.518;2023-02-22T08:51:18;10.38;;;8.23;;
20725;SDS011;10524;48.132;8.518;2023-02-22T08:53:45;12.50;;;9.32;;
20725;SDS011;10524;48.132;8.518;2023-02-22T08:56:10;15.40;;;9.13;;
20725;SDS011;10524;48.132;8.518;2023-02-22T08:58:36;18.40;;;9.48;;
20725;SDS011;10524;48.132;8.518;2023-02-22T09:01:02;15.75;;;10.85;;
20725;SDS011;10524;48.132;8.518;2023-02-22T09:03:28;14.93;;;9.63;;
20725;SDS011;10524;48.132;8.518;2023-02-22T09:05:53;9.20;;;7.60;;
20725;SDS011;10524;48.132;8.518;2023-02-22T09:08:19;12.07;;;8.60;;
20725;SDS011;10524;48.132;8.518;2023-02-22T09:10:45;12.38;;;8.02;;
20725;SDS011;10524;48.132;8.518;2023-02-22T09:13:11;13.85;;;10.00;;
20725;SDS011;10524;48.132;8.518;2023-02-22T09:15:38;12.57;;;8.27;;
20725;SDS011;10524;48.132;8.518;2023-02-22T09:18:04;12.35;;;8.02;;
20725;SDS011;10524;48.132;8.518;2023-02-22T09:20:34;12.95;;;8.93;;
20725;SDS011;10524;48.132;8.518;2023-02-22T09:23:01;11.85;;;7.45;;
20725;SDS011;10524;48.132;8.518;2023-02-22T09:25:29;11.52;;;7.28;;
20725;SDS011;10524;48.132;8.518;2023-02-22T09:27:55;7.45;;;6.10;;
20725;SDS011;10524;48.132;8.518;2023-02-22T09:30:31;9.98;;;6.50;;
20725;SDS011;10524;48.132;8.518;2023-02-22T09:32:59;7.88;;;6.18;;
20725;SDS011;10524;48.132;8.518;2023-02-22T09:35:26;14.07;;;8.68;;
20725;SDS011;10524;48.132;8.518;2023-02-22T09:37:55;10.77;;;6.85;;
20725;SDS011;10524;48.132;8.518;2023-02-22T09:40:22;8.80;;;6.63;;
20725;SDS011;10524;48.132;8.518;2023-02-22T09:48:31;7.63;;;5.15;;
20725;SDS011;10524;48.132;8.518;2023-02-22T09:51:01;10.90;;;7.50;;
20725;SDS011;10524;48.132;8.518;2023-02-22T09:53:35;9.10;;;6.60;;
20725;SDS011;10524;48.132;8.518;2023-02-22T09:56:07;11.00;;;6.87;;
20725;SDS011;10524;48.132;8.518;2023-02-22T09:58:39;11.70;;;6.65;;
20725;SDS011;10524;48.132;8.518;2023-02-22T10:06:43;8.82;;;6.93;;
20725;SDS011;10524;48.132;8.518;2023-02-22T10:09:26;14.35;;;8.18;;
20725;SDS011;10524;48.132;8.518;2023-02-22T10:11:57;11.60;;;8.73;;
20725;SDS011;10524;48.132;8.518;2023-02-22T10:17:25;8.68;;;7.30;;
20725;SDS011;10524;48.132;8.518;2023-02-22T10:25:30;10.95;;;7.32;;
20725;SDS011;10524;48.132;8.518;2023-02-22T10:28:07;8.15;;;6.40;;
20725;SDS011;10524;48.132;8.518;2023-02-22T10:30:41;8.63;;;6.82;;
20725;SDS011;10524;48.132;8.518;2023-02-22T10:33:32;8.23;;;6.00;;
20725;SDS011;10524;48.132;8.518;2023-02-22T10:36:02;8.45;;;5.97;;
20725;SDS011;10524;48.132;8.518;2023-02-22T10:38:29;7.25;;;4.80;;
20725;SDS011;10524;48.132;8.518;2023-02-22T10:43:38;6.35;;;4.43;;
20725;SDS011;10524;48.132;8.518;2023-02-22T10:46:06;5.40;;;4.35;;
20725;SDS011;10524;48.132;8.518;2023-02-22T10:48:36;9.35;;;4.88;;
20725;SDS011;10524;48.132;8.518;2023-02-22T10:51:05;9.00;;;4.95;;
20725;SDS011;10524;48.132;8.518;2023-02-22T10:53:33;6.88;;;4.53;;
20725;SDS011;10524;48.132;8.518;2023-02-22T10:56:12;6.18;;;4.50;;
20725;SDS011;10524;48.132;8.518;2023-02-22T11:01:24;8.48;;;5.50;;
20725;SDS011;10524;48.132;8.518;2023-02-22T11:06:32;8.52;;;5.25;;
20725;SDS011;10524;48.132;8.518;2023-02-22T11:09:06;8.80;;;5.22;;
20725;SDS011;10524;48.132;8.518;2023-02-22T11:11:34;7.60;;;5.00;;
20725;SDS011;10524;48.132;8.518;2023-02-22T11:14:01;7.78;;;5.18;;
20725;SDS011;10524;48.132;8.518;2023-02-22T11:19:00;7.43;;;4.90;;
20725;SDS011;10524;48.132;8.518;2023-02-22T11:21:34;6.45;;;4.60;;
20725;SDS011;10524;48.132;8.518;2023-02-22T11:24:01;6.25;;;4.25;;
20725;SDS011;10524;48.132;8.518;2023-02-22T11:26:39;6.82;;;4.30;;
20725;SDS011;10524;48.132;8.518;2023-02-22T11:29:12;7.55;;;4.70;;
20725;SDS011;10524;48.132;8.518;2023-02-22T11:31:44;7.53;;;4.55;;
20725;SDS011;10524;48.132;8.518;2023-02-22T11:34:27;6.32;;;4.45;;
20725;SDS011;10524;48.132;8.518;2023-02-22T11:37:15;6.43;;;4.57;;
20725;SDS011;10524;48.132;8.518;2023-02-22T11:40:03;7.60;;;4.70;;
20725;SDS011;10524;48.132;8.518;2023-02-22T11:42:31;8.82;;;4.63;;
20725;SDS011;10524;48.132;8.518;2023-02-22T11:45:16;11.85;;;5.43;;
20725;SDS011;10524;48.132;8.518;2023-02-22T11:48:06;6.28;;;4.80;;
20725;SDS011;10524;48.132;8.518;2023-02-22T11:50:54;9.15;;;5.10;;
20725;SDS011;10524;48.132;8.518;2023-02-22T12:13:46;7.28;;;4.78;;
20725;SDS011;10524;48.132;8.518;2023-02-22T12:15:57;8.30;;;4.60;;
20725;SDS011;10524;48.132;8.518;2023-02-22T12:18:38;7.95;;;4.88;;
20725;SDS011;10524;48.132;8.518;2023-02-22T12:21:24;7.10;;;4.93;;
20725;SDS011;10524;48.132;8.518;2023-02-22T12:24:09;7.80;;;4.80;;
20725;SDS011;10524;48.132;8.518;2023-02-22T12:26:41;8.43;;;5.00;;
20725;SDS011;10524;48.132;8.518;2023-02-22T12:29:35;7.70;;;5.07;;
20725;SDS011;10524;48.132;8.518;2023-02-22T12:32:50;7.60;;;4.63;;
20725;SDS011;10524;48.132;8.518;2023-02-22T12:35:18;9.70;;;5.10;;
20725;SDS011;10524;48.132;8.518;2023-02-22T12:37:51;6.65;;;4.22;;
20725;SDS011;10524;48.132;8.518;2023-02-22T12:43:29;7.32;;;4.65;;
20725;SDS011;10524;48.132;8.518;2023-02-22T12:57:00;7.95;;;5.00;;
20725;SDS011;10524;48.132;8.518;2023-02-22T12:59:48;9.93;;;5.35;;
20725;SDS011;10524;48.132;8.518;2023-02-22T13:04:45;9.90;;;5.22;;
20725;SDS011;10524;48.132;8.518;2023-02-22T13:07:20;6.32;;;4.85;;
20725;SDS011;10524;48.132;8.518;2023-02-22T13:12:44;11.40;;;5.43;;
20725;SDS011;10524;48.132;8.518;2023-02-22T13:15:35;8.73;;;5.00;;
20725;SDS011;10524;48.132;8.518;2023-02-22T13:29:38;6.72;;;4.95;;
20725;SDS011;10524;48.132;8.518;2023-02-22T13:35:15;7.38;;;4.90;;
20725;SDS011;10524;48.132;8.518;2023-02-22T13:52:11;6.28;;;4.13;;
20725;SDS011;10524;48.132;8.518;2023-02-22T13:54:51;5.93;;;4.35;;
20725;SDS011;10524;48.132;8.518;2023-02-22T14:02:58;4.65;;;3.20;;
20725;SDS011;10524;48.132;8.518;2023-02-22T14:16:23;7.55;;;3.92;;
20725;SDS011;10524;48.132;8.518;2023-02-22T14:19:04;7.47;;;4.22;;
20725;SDS011;10524;48.132;8.518;2023-02-22T14:21:55;7.78;;;5.15;;
20725;SDS011;10524;48.132;8.518;2023-02-22T14:24:26;6.25;;;4.47;;
20725;SDS011;10524;48.132;8.518;2023-02-22T14:29:19;8.38;;;5.60;;
20725;SDS011;10524;48.132;8.518;2023-02-22T14:34:14;8.57;;;6.70;;
20725;SDS011;10524;48.132;8.518;2023-02-22T14:44:39;11.57;;;7.90;;
20725;SDS011;10524;48.132;8.518;2023-02-22T14:47:06;11.02;;;7.97;;
20725;SDS011;10524;48.132;8.518;2023-02-22T14:49:45;11.32;;;8.32;;
20725;SDS011;10524;48.132;8.518;2023-02-22T14:52:26;11.65;;;8.73;;
20725;SDS011;10524;48.132;8.518;2023-02-22T14:55:01;12.05;;;8.60;;
20725;SDS011;10524;48.132;8.518;2023-02-22T14:57:51;11.25;;;8.57;;
20725;SDS011;10524;48.132;8.518;2023-02-22T15:00:41;14.88;;;9.38;;
20725;SDS011;10524;48.132;8.518;2023-02-22T15:03:17;13.10;;;9.88;;
20725;SDS011;10524;48.132;8.518;2023-02-22T15:05:42;16.45;;;10.18;;
20725;SDS011;10524;48.132;8.518;2023-02-22T15:08:08;13.98;;;10.50;;
20725;SDS011;10524;48.132;8.518;2023-02-22T15:10:38;13.30;;;9.63;;
20725;SDS011;10524;48.132;8.518;2023-02-22T15:13:14;14.63;;;9.80;;
20725;SDS011;10524;48.132;8.518;2023-02-22T15:15:48;12.48;;;9.25;;
20725;SDS011;10524;48.132;8.518;2023-02-22T15:21:14;14.27;;;9.45;;
20725;SDS011;10524;48.132;8.518;2023-02-22T15:26:17;13.07;;;9.23;;
20725;SDS011;10524;48.132;8.518;2023-02-22T15:28:52;17.08;;;10.15;;
20725;SDS011;10524;48.132;8.518;2023-02-22T15:33:51;14.70;;;10.02;;
20725;SDS011;10524;48.132;8.518;2023-02-22T15:36:18;14.35;;;9.60;;
20725;SDS011;10524;48.132;8.518;2023-02-22T15:38:48;15.68;;;10.23;;
20725;SDS011;10524;48.132;8.518;2023-02-22T15:41:19;14.60;;;9.05;;
20725;SDS011;10524;48.132;8.518;2023-02-22T15:44:05;13.05;;;9.30;;
20725;SDS011;10524;48.132;8.518;2023-02-22T15:46:34;16.95;;;9.77;;
20725;SDS011;10524;48.132;8.518;2023-02-22T15:49:05;15.90;;;9.10;;
20725;SDS011;10524;48.132;8.518;2023-02-22T15:54:53;15.30;;;10.80;;
20725;SDS011;10524;48.132;8.518;2023-02-22T15:57:22;13.95;;;10.30;;
20725;SDS011;10524;48.132;8.518;2023-02-22T15:59:52;15.25;;;10.05;;
20725;SDS011;10524;48.132;8.518;2023-02-22T16:02:28;13.73;;;10.13;;
20725;SDS011;10524;48.132;8.518;2023-02-22T16:05:03;15.13;;;10.52;;
20725;SDS011;10524;48.132;8.518;2023-02-22T16:07:44;15.57;;;10.85;;
20725;SDS011;10524;48.132;8.518;2023-02-22T16:10:17;15.20;;;11.00;;
20725;SDS011;10524;48.132;8.518;2023-02-22T16:13:18;16.73;;;11.25;;
20725;SDS011;10524;48.132;8.518;2023-02-22T16:18:44;17.52;;;11.10;;
20725;SDS011;10524;48.132;8.518;2023-02-22T16:21:11;15.57;;;11.20;;
20725;SDS011;10524;48.132;8.518;2023-02-22T16:23:42;15.57;;;10.48;;
20725;SDS011;10524;48.132;8.518;2023-02-22T16:28:49;16.63;;;11.05;;
20725;SDS011;10524;48.132;8.518;2023-02-22T16:31:20;18.40;;;11.68;;
20725;SDS011;10524;48.132;8.518;2023-02-22T16:33:49;16.63;;;12.00;;
20725;SDS011;10524;48.132;8.518;2023-02-22T16:36:17;16.65;;;11.90;;
20725;SDS011;10524;48.132;8.518;2023-02-22T16:38:43;17.52;;;12.13;;
20725;SDS011;10524;48.132;8.518;2023-02-22T16:41:12;18.25;;;12.18;;
20725;SDS011;10524;48.132;8.518;2023-02-22T16:43:43;18.58;;;13.52;;
20725;SDS011;10524;48.132;8.518;2023-02-22T16:46:11;35.58;;;15.40;;
20725;SDS011;10524;48.132;8.518;2023-02-22T16:48:36;23.02;;;17.65;;
20725;SDS011;10524;48.132;8.518;2023-02-22T16:51:20;24.50;;;16.48;;
20725;SDS011;10524;48.132;8.518;2023-02-22T16:53:48;22.40;;;15.15;;
20725;SDS011;10524;48.132;8.518;2023-02-22T16:56:17;20.00;;;13.98;;
20725;SDS011;10524;48.132;8.518;2023-02-22T16:58:44;19.55;;;14.57;;
20725;SDS011;10524;48.132;8.518;2023-02-22T17:01:13;81.70;;;42.03;;
20725;SDS011;10524;48.132;8.518;2023-02-22T17:03:40;81.50;;;43.63;;
20725;SDS011;10524;48.132;8.518;2023-02-22T17:06:06;55.83;;;32.97;;
20725;SDS011;10524;48.132;8.518;2023-02-22T17:08:34;96.40;;;47.60;;
20725;SDS011;10524;48.132;8.518;2023-02-22T17:11:01;59.45;;;37.85;;
20725;SDS011;10524;48.132;8.518;2023-02-22T17:13:27;31.45;;;22.73;;
20725;SDS011;10524;48.132;8.518;2023-02-22T17:15:53;27.10;;;19.80;;
20725;SDS011;10524;48.132;8.518;2023-02-22T17:18:19;29.83;;;20.17;;
20725;SDS011;10524;48.132;8.518;2023-02-22T17:20:47;24.40;;;16.08;;
20725;SDS011;10524;48.132;8.518;2023-02-22T17:23:13;39.80;;;28.13;;
20725;SDS011;10524;48.132;8.518;2023-02-22T17:25:41;26.13;;;19.77;;
20725;SDS011;10524;48.132;8.518;2023-02-22T17:28:08;29.85;;;20.27;;
20725;SDS011;10524;48.132;8.518;2023-02-22T17:30:34;24.95;;;17.67;;
20725;SDS011;10524;48.132;8.518;2023-02-22T17:33:01;29.30;;;20.88;;
20725;SDS011;10524;48.132;8.518;2023-02-22T17:35:30;28.92;;;21.10;;
20725;SDS011;10524;48.132;8.518;2023-02-22T17:37:57;23.48;;;16.40;;
20725;SDS011;10524;48.132;8.518;2023-02-22T17:40:30;22.63;;;15.13;;
20725;SDS011;10524;48.132;8.518;2023-02-22T17:42:57;22.42;;;15.82;;
20725;SDS011;10524;48.132;8.518;2023-02-22T17:45:23;23.70;;;16.30;;
20725;SDS011;10524;48.132;8.518;2023-02-22T17:47:49;21.67;;;15.13;;
20725;SDS011;10524;48.132;8.518;2023-02-22T17:50:19;23.00;;;15.48;;
20725;SDS011;10524;48.132;8.518;2023-02-22T17:52:49;22.63;;;15.35;;
20725;SDS011;10524;48.132;8.518;2023-02-22T17:55:15;21.52;;;15.15;;